createdAt,value
2022-09-22T00:04:06.070Z,99.90
2022-09-22T00:09:11.731Z,99.90
2022-09-22T00:14:22.934Z,99.90
2022-09-22T00:19:28.093Z,99.90
2022-09-22T00:24:31.302Z,99.90
2022-09-22T00:29:33.493Z,99.90
2022-09-22T00:34:35.650Z,99.90
2022-09-22T00:39:37.881Z,99.90
2022-09-22T00:44:44.544Z,99.90
2022-09-22T00:49:52.487Z,99.90
2022-09-22T00:54:58.837Z,99.90
2022-09-22T01:00:03.765Z,99.90
2022-09-22T01:05:06.849Z,99.90
2022-09-22T01:10:11.366Z,99.90
2022-09-22T01:15:20.296Z,99.90
2022-09-22T01:20:34.243Z,99.90
2022-09-22T01:26:03.782Z,99.90
2022-09-22T01:31:18.586Z,99.90
2022-09-22T01:36:48.248Z,99.90
2022-09-22T01:42:11.553Z,99.90
2022-09-22T01:47:28.522Z,99.90
2022-09-22T01:52:33.577Z,99.90
2022-09-22T01:58:02.124Z,99.90
2022-09-22T02:03:17.440Z,99.90
2022-09-22T02:08:55.222Z,99.90
2022-09-22T02:13:57.732Z,99.90
2022-09-22T02:19:12.326Z,99.90
2022-09-22T02:24:27.065Z,99.90
2022-09-22T02:29:32.672Z,99.90
2022-09-22T02:34:34.932Z,99.90
2022-09-22T02:39:52.288Z,99.90
2022-09-22T02:45:18.433Z,99.90
2022-09-22T02:50:24.208Z,99.90
2022-09-22T02:55:26.369Z,99.90
2022-09-22T03:00:29.127Z,99.90
2022-09-22T03:05:31.328Z,99.90
2022-09-22T03:10:33.850Z,99.90
2022-09-22T03:15:36.054Z,99.90
2022-09-22T03:20:38.293Z,99.90
2022-09-22T03:25:40.491Z,99.90
2022-09-22T03:30:42.686Z,99.90
2022-09-22T03:35:44.841Z,99.90
2022-09-22T03:40:51.258Z,99.90
2022-09-22T03:46:01.102Z,99.90
2022-09-22T03:51:03.497Z,99.90
2022-09-22T03:56:11.053Z,99.90
2022-09-22T04:01:13.502Z,99.90
2022-09-22T04:06:15.990Z,99.90
2022-09-22T04:11:18.233Z,99.90
2022-09-22T04:16:20.909Z,99.90
2022-09-22T04:21:23.524Z,99.90
2022-09-22T04:26:25.772Z,99.90
2022-09-22T04:31:28.076Z,99.90
2022-09-22T04:36:30.320Z,99.90
2022-09-22T04:41:32.650Z,99.90
2022-09-22T04:46:34.861Z,99.90
2022-09-22T04:51:37.037Z,99.90
2022-09-22T04:56:39.196Z,99.90
2022-09-22T05:01:41.762Z,99.90
2022-09-22T05:06:44.125Z,99.90
2022-09-22T05:11:49.023Z,99.90
2022-09-22T05:16:51.407Z,99.90
2022-09-22T05:21:54.075Z,99.90
2022-09-22T05:26:56.281Z,99.90
2022-09-22T05:31:58.726Z,99.90
2022-09-22T05:37:00.979Z,99.90
2022-09-22T05:42:06.412Z,99.90
2022-09-22T05:47:12.446Z,99.90
2022-09-22T05:52:14.792Z,99.90
2022-09-22T05:57:17.136Z,99.90
2022-09-22T06:02:26.073Z,99.90
2022-09-22T06:07:28.568Z,99.90
2022-09-22T06:12:31.010Z,99.90
2022-09-22T06:17:33.243Z,99.90
2022-09-22T06:22:37.182Z,99.90
2022-09-22T06:27:40.238Z,99.90
2022-09-22T06:32:43.962Z,99.90
2022-09-22T06:37:48.694Z,99.90
2022-09-22T06:42:56.305Z,99.90
2022-09-22T06:47:59.167Z,99.90
2022-09-22T06:53:03.063Z,99.90
2022-09-22T06:58:05.280Z,99.90
2022-09-22T07:03:19.754Z,99.90
2022-09-22T07:08:23.446Z,99.90
2022-09-22T07:13:28.224Z,99.90
2022-09-22T07:18:30.687Z,99.90
2022-09-22T07:23:36.582Z,99.90
2022-09-22T07:28:39.594Z,99.90
2022-09-22T07:33:43.988Z,99.90
2022-09-22T07:38:51.598Z,99.90
2022-09-22T07:44:22.215Z,99.90
2022-09-22T07:49:24.460Z,99.90
2022-09-22T07:54:27.715Z,99.90
2022-09-22T07:59:29.931Z,99.90
2022-09-22T08:04:32.686Z,99.90
2022-09-22T08:09:36.032Z,99.90
2022-09-22T08:14:38.157Z,99.90
2022-09-22T08:19:41.060Z,99.90
2022-09-22T08:24:45.674Z,99.90
2022-09-22T08:29:48.051Z,99.90
2022-09-22T08:34:51.431Z,99.90
2022-09-22T08:39:53.773Z,99.90
2022-09-22T08:45:12.426Z,99.90
2022-09-22T08:50:44.615Z,99.90
2022-09-22T08:55:56.067Z,99.90
2022-09-22T09:01:36.973Z,99.90
2022-09-22T09:07:18.863Z,99.90
2022-09-22T09:12:36.209Z,99.90
2022-09-22T09:17:40.420Z,99.90
2022-09-22T09:22:57.295Z,99.90
2022-09-22T09:28:07.193Z,99.90
2022-09-22T09:33:23.674Z,99.90
2022-09-22T09:38:31.010Z,99.90
2022-09-22T09:43:33.495Z,99.90
2022-09-22T09:48:58.625Z,99.90
2022-09-22T09:54:05.515Z,99.90
2022-09-22T09:59:31.065Z,99.90
2022-09-22T10:04:37.232Z,99.90
2022-09-22T10:09:40.866Z,99.90
2022-09-22T10:14:51.299Z,99.90
2022-09-22T10:19:54.087Z,99.90
2022-09-22T10:25:01.865Z,99.30
2022-09-22T10:30:21.370Z,99.40
2022-09-22T10:35:30.169Z,99.30
2022-09-22T10:40:32.421Z,99.30
2022-09-22T10:45:53.521Z,98.20
2022-09-22T10:51:16.307Z,97.60
2022-09-22T10:56:34.669Z,96.50
2022-09-22T11:01:39.838Z,96.60
2022-09-22T11:07:34.061Z,96.50
2022-09-22T11:12:46.785Z,95.40
2022-09-22T11:18:00.905Z,95.50
2022-09-22T11:23:18.211Z,94.60
2022-09-22T11:28:29.561Z,93.60
2022-09-22T11:33:37.746Z,93.90
2022-09-22T11:38:58.349Z,93.50
2022-09-22T11:44:24.680Z,93.00
2022-09-22T11:49:44.731Z,92.50
2022-09-22T11:55:12.138Z,92.30
2022-09-22T12:00:17.512Z,91.80
2022-09-22T12:05:47.936Z,91.90
2022-09-22T12:10:51.425Z,91.00
2022-09-22T12:16:09.899Z,90.10
2022-09-22T12:21:50.354Z,90.40
2022-09-22T12:26:53.752Z,93.20
2022-09-22T12:31:59.162Z,93.70
2022-09-22T12:37:21.555Z,94.00
2022-09-22T12:42:36.644Z,94.00
2022-09-22T12:47:47.180Z,94.20
2022-09-22T12:52:50.705Z,95.50
2022-09-22T12:57:52.951Z,95.80
2022-09-22T13:02:56.681Z,95.50
2022-09-22T13:07:58.940Z,96.70
2022-09-22T13:13:03.882Z,97.40
2022-09-22T13:18:39.052Z,97.90
2022-09-22T13:23:57.682Z,97.90
2022-09-22T13:29:17.771Z,98.20
2022-09-22T13:34:35.391Z,98.30
2022-09-22T13:39:50.020Z,98.50
2022-09-22T13:45:19.031Z,99.20
2022-09-22T13:50:22.932Z,99.70
2022-09-22T13:55:37.397Z,99.90
2022-09-22T14:01:12.082Z,99.90
2022-09-22T14:06:25.809Z,99.00
2022-09-22T14:11:30.970Z,99.40
2022-09-22T14:16:45.701Z,98.50
2022-09-22T14:21:56.628Z,98.60
2022-09-22T14:27:03.957Z,98.80
2022-09-22T14:32:12.722Z,98.70
2022-09-22T14:37:39.514Z,98.60
2022-09-22T14:42:41.803Z,98.60
2022-09-22T14:47:44.130Z,99.30
2022-09-22T14:53:06.766Z,99.90
2022-09-22T14:58:16.701Z,99.90
2022-09-22T15:03:29.800Z,99.90
2022-09-22T15:08:31.967Z,99.90
2022-09-22T15:13:41.985Z,99.90
2022-09-22T15:18:46.852Z,99.90
2022-09-22T15:23:49.354Z,99.90
2022-09-22T15:28:53.570Z,99.90
2022-09-22T15:33:59.356Z,99.90
2022-09-22T15:39:07.255Z,99.50
2022-09-22T15:44:09.685Z,99.90
2022-09-22T15:49:20.913Z,99.90
2022-09-22T15:54:24.329Z,99.30
2022-09-22T15:59:28.471Z,98.30
2022-09-22T16:04:33.646Z,97.70
2022-09-22T16:09:35.926Z,98.20
2022-09-22T16:14:39.698Z,99.40
2022-09-22T16:19:41.786Z,99.90
2022-09-22T16:24:44.426Z,99.90
2022-09-22T16:29:46.610Z,99.90
2022-09-22T16:34:49.026Z,99.90
2022-09-22T16:39:51.110Z,99.90
2022-09-22T16:44:53.158Z,99.90
2022-09-22T16:49:55.747Z,99.30
2022-09-22T16:54:59.809Z,99.50
2022-09-22T17:00:02.165Z,99.90
2022-09-22T17:05:04.560Z,99.90
2022-09-22T17:10:07.117Z,99.90
2022-09-22T17:15:12.049Z,99.90
2022-09-22T17:20:14.189Z,99.90
2022-09-22T17:25:16.354Z,99.90
2022-09-22T17:30:18.446Z,99.90
2022-09-22T17:35:20.565Z,99.90
2022-09-22T17:40:22.808Z,99.90
2022-09-22T17:45:25.067Z,99.90
2022-09-22T17:50:45.828Z,99.90
2022-09-22T17:55:47.887Z,99.90
2022-09-22T18:00:50.872Z,99.90
2022-09-22T18:05:53.708Z,99.90
2022-09-22T18:10:55.850Z,99.90
2022-09-22T18:16:21.140Z,99.90
2022-09-22T18:21:23.296Z,99.90
2022-09-22T18:26:31.729Z,99.90
2022-09-22T18:31:33.969Z,99.90
2022-09-22T18:36:37.576Z,99.90
2022-09-22T18:41:40.526Z,99.90
2022-09-22T18:46:43.062Z,99.90
2022-09-22T18:51:49.722Z,99.90
2022-09-22T18:56:51.849Z,99.90
2022-09-22T19:01:54.470Z,99.90
2022-09-22T19:07:16.281Z,99.90
2022-09-22T19:12:20.457Z,99.90
2022-09-22T19:17:24.482Z,99.90
2022-09-22T19:22:27.319Z,99.90
2022-09-22T19:27:29.528Z,99.90
2022-09-22T19:32:31.641Z,99.90
2022-09-22T19:37:35.788Z,99.90
2022-09-22T19:42:40.230Z,99.90
2022-09-22T19:47:42.735Z,99.90
2022-09-22T19:52:45.062Z,99.90
2022-09-22T19:57:48.663Z,99.90
2022-09-22T20:02:50.753Z,99.90
2022-09-22T20:07:53.704Z,99.90
2022-09-22T20:12:56.014Z,99.90
2022-09-22T20:17:58.076Z,99.90
2022-09-22T20:23:00.354Z,99.90
2022-09-22T20:28:02.708Z,99.90
2022-09-22T20:33:05.586Z,99.90
2022-09-22T20:38:10.889Z,99.90
2022-09-22T20:43:14.432Z,99.90
2022-09-22T20:48:18.651Z,99.90
2022-09-22T20:53:20.846Z,99.90
2022-09-22T20:58:23.087Z,99.90
2022-09-22T21:03:25.612Z,99.90
2022-09-22T21:08:47.060Z,99.90
2022-09-22T21:13:54.035Z,99.90
2022-09-22T21:18:57.273Z,99.90
2022-09-22T21:24:02.980Z,99.90
2022-09-22T21:29:05.076Z,99.90
2022-09-22T21:34:07.281Z,99.90
2022-09-22T21:39:09.606Z,99.90
2022-09-22T21:44:11.840Z,99.90
2022-09-22T21:49:14.287Z,99.90
2022-09-22T21:54:18.684Z,99.90
2022-09-22T21:59:21.672Z,99.90
2022-09-22T22:04:23.967Z,99.90
2022-09-22T22:09:26.083Z,99.90
2022-09-22T22:14:32.926Z,99.90
2022-09-22T22:19:35.024Z,99.90
2022-09-22T22:24:42.255Z,99.90
2022-09-22T22:29:44.336Z,99.90
2022-09-22T22:34:46.385Z,99.90
2022-09-22T22:39:48.502Z,99.90
2022-09-22T22:44:50.558Z,99.90
2022-09-22T22:49:52.656Z,99.90
2022-09-22T22:54:55.459Z,99.90
2022-09-22T22:59:57.907Z,99.90
2022-09-22T23:05:01.258Z,99.90
2022-09-22T23:10:06.774Z,99.90
2022-09-22T23:15:09.879Z,99.90
2022-09-22T23:20:12.729Z,99.90
2022-09-22T23:25:15.079Z,99.90
2022-09-22T23:30:17.454Z,99.90
2022-09-22T23:35:19.555Z,99.90
2022-09-22T23:40:21.885Z,99.90
2022-09-22T23:45:24.291Z,99.90
2022-09-22T23:50:26.542Z,99.90
2022-09-22T23:55:29.097Z,99.90
